sensor_id;sensor_type;location;lat;lon;timestamp;P1;durP1;ratioP1;P2;durP2;ratioP2
73733;SDS011;62039;50.000;9.064;2022-12-01T00:01:43;12.03;;;8.73;;
73733;SDS011;62039;50.000;9.064;2022-12-01T00:04:10;11.50;;;7.97;;
73733;SDS011;62039;50.000;9.064;2022-12-01T00:06:38;10.10;;;6.87;;
73733;SDS011;62039;50.000;9.064;2022-12-01T00:09:04;10.93;;;8.43;;
73733;SDS011;62039;50.000;9.064;2022-12-01T00:11:31;13.10;;;8.93;;
73733;SDS011;62039;50.000;9.064;2022-12-01T00:13:58;11.00;;;8.20;;
73733;SDS011;62039;50.000;9.064;2022-12-01T00:16:25;9.93;;;8.10;;
73733;SDS011;62039;50.000;9.064;2022-12-01T00:18:52;10.17;;;8.30;;
73733;SDS011;62039;50.000;9.064;2022-12-01T00:21:20;11.90;;;8.23;;
73733;SDS011;62039;50.000;9.064;2022-12-01T00:23:50;11.03;;;8.53;;
73733;SDS011;62039;50.000;9.064;2022-12-01T00:26:18;9.23;;;7.13;;
73733;SDS011;62039;50.000;9.064;2022-12-01T00:28:47;9.60;;;7.53;;
73733;SDS011;62039;50.000;9.064;2022-12-01T00:31:14;9.30;;;7.77;;
73733;SDS011;62039;50.000;9.064;2022-12-01T00:33:40;10.40;;;7.93;;
73733;SDS011;62039;50.000;9.064;2022-12-01T00:36:07;9.60;;;7.60;;
73733;SDS011;62039;50.000;9.064;2022-12-01T00:38:34;10.97;;;8.53;;
73733;SDS011;62039;50.000;9.064;2022-12-01T00:41:02;10.40;;;8.43;;
73733;SDS011;62039;50.000;9.064;2022-12-01T00:43:29;10.57;;;8.03;;
73733;SDS011;62039;50.000;9.064;2022-12-01T00:45:56;10.53;;;8.03;;
73733;SDS011;62039;50.000;9.064;2022-12-01T00:48:23;12.90;;;9.00;;
73733;SDS011;62039;50.000;9.064;2022-12-01T00:50:50;12.10;;;9.17;;
73733;SDS011;62039;50.000;9.064;2022-12-01T00:53:17;10.77;;;8.37;;
73733;SDS011;62039;50.000;9.064;2022-12-01T00:55:44;12.03;;;9.10;;
73733;SDS011;62039;50.000;9.064;2022-12-01T00:58:12;10.33;;;8.50;;
73733;SDS011;62039;50.000;9.064;2022-12-01T01:00:38;12.37;;;8.30;;
73733;SDS011;62039;50.000;9.064;2022-12-01T01:03:05;13.90;;;9.10;;
73733;SDS011;62039;50.000;9.064;2022-12-01T01:05:33;13.17;;;10.03;;
73733;SDS011;62039;50.000;9.064;2022-12-01T01:08:00;11.97;;;9.03;;
73733;SDS011;62039;50.000;9.064;2022-12-01T01:10:27;12.80;;;9.57;;
73733;SDS011;62039;50.000;9.064;2022-12-01T01:12:54;11.07;;;8.43;;
73733;SDS011;62039;50.000;9.064;2022-12-01T01:15:22;14.07;;;9.70;;
73733;SDS011;62039;50.000;9.064;2022-12-01T01:17:48;11.77;;;9.33;;
73733;SDS011;62039;50.000;9.064;2022-12-01T01:20:15;14.13;;;10.40;;
73733;SDS011;62039;50.000;9.064;2022-12-01T01:22:41;12.53;;;9.13;;
73733;SDS011;62039;50.000;9.064;2022-12-01T01:25:08;10.57;;;8.23;;
73733;SDS011;62039;50.000;9.064;2022-12-01T01:27:35;11.93;;;8.90;;
73733;SDS011;62039;50.000;9.064;2022-12-01T01:30:02;13.07;;;9.73;;
73733;SDS011;62039;50.000;9.064;2022-12-01T01:32:30;10.47;;;8.73;;
73733;SDS011;62039;50.000;9.064;2022-12-01T01:34:57;12.27;;;9.33;;
73733;SDS011;62039;50.000;9.064;2022-12-01T01:37:23;10.87;;;8.37;;
73733;SDS011;62039;50.000;9.064;2022-12-01T01:39:50;10.87;;;9.03;;
73733;SDS011;62039;50.000;9.064;2022-12-01T01:42:17;12.50;;;8.87;;
73733;SDS011;62039;50.000;9.064;2022-12-01T01:44:46;11.83;;;9.37;;
73733;SDS011;62039;50.000;9.064;2022-12-01T01:47:17;11.07;;;9.13;;
73733;SDS011;62039;50.000;9.064;2022-12-01T01:49:48;12.93;;;9.40;;
73733;SDS011;62039;50.000;9.064;2022-12-01T01:52:15;13.17;;;8.90;;
73733;SDS011;62039;50.000;9.064;2022-12-01T01:54:43;12.70;;;9.60;;
73733;SDS011;62039;50.000;9.064;2022-12-01T01:57:14;14.50;;;10.63;;
73733;SDS011;62039;50.000;9.064;2022-12-01T01:59:45;12.53;;;9.67;;
73733;SDS011;62039;50.000;9.064;2022-12-01T02:02:17;13.93;;;9.73;;
73733;SDS011;62039;50.000;9.064;2022-12-01T02:04:45;10.37;;;8.60;;
73733;SDS011;62039;50.000;9.064;2022-12-01T02:07:15;11.47;;;8.73;;
73733;SDS011;62039;50.000;9.064;2022-12-01T02:09:44;11.33;;;8.53;;
73733;SDS011;62039;50.000;9.064;2022-12-01T02:12:14;11.17;;;8.83;;
73733;SDS011;62039;50.000;9.064;2022-12-01T02:14:56;12.67;;;10.03;;
73733;SDS011;62039;50.000;9.064;2022-12-01T02:17:33;10.67;;;9.40;;
73733;SDS011;62039;50.000;9.064;2022-12-01T02:20:17;12.10;;;9.30;;
73733;SDS011;62039;50.000;9.064;2022-12-01T02:23:05;13.37;;;10.00;;
73733;SDS011;62039;50.000;9.064;2022-12-01T02:26:02;12.63;;;9.27;;
73733;SDS011;62039;50.000;9.064;2022-12-01T02:28:45;10.77;;;8.93;;
73733;SDS011;62039;50.000;9.064;2022-12-01T02:31:22;12.73;;;9.37;;
73733;SDS011;62039;50.000;9.064;2022-12-01T02:33:56;12.00;;;9.20;;
73733;SDS011;62039;50.000;9.064;2022-12-01T02:36:29;15.87;;;8.87;;
73733;SDS011;62039;50.000;9.064;2022-12-01T02:39:02;12.67;;;9.20;;
73733;SDS011;62039;50.000;9.064;2022-12-01T02:41:32;10.00;;;8.03;;
73733;SDS011;62039;50.000;9.064;2022-12-01T02:44:04;11.30;;;8.77;;
73733;SDS011;62039;50.000;9.064;2022-12-01T02:46:38;11.30;;;9.37;;
73733;SDS011;62039;50.000;9.064;2022-12-01T02:49:10;11.60;;;8.70;;
73733;SDS011;62039;50.000;9.064;2022-12-01T02:51:41;9.07;;;7.53;;
73733;SDS011;62039;50.000;9.064;2022-12-01T02:54:09;12.00;;;8.60;;
73733;SDS011;62039;50.000;9.064;2022-12-01T02:56:38;10.60;;;8.43;;
73733;SDS011;62039;50.000;9.064;2022-12-01T02:59:07;10.47;;;8.57;;
73733;SDS011;62039;50.000;9.064;2022-12-01T03:01:38;11.90;;;9.17;;
73733;SDS011;62039;50.000;9.064;2022-12-01T03:04:20;9.83;;;8.27;;
73733;SDS011;62039;50.000;9.064;2022-12-01T03:07:02;11.67;;;9.47;;
73733;SDS011;62039;50.000;9.064;2022-12-01T03:09:38;10.83;;;8.33;;
73733;SDS011;62039;50.000;9.064;2022-12-01T03:12:13;11.90;;;8.90;;
73733;SDS011;62039;50.000;9.064;2022-12-01T03:14:48;11.00;;;9.10;;
73733;SDS011;62039;50.000;9.064;2022-12-01T03:17:24;11.43;;;9.30;;
73733;SDS011;62039;50.000;9.064;2022-12-01T03:19:57;12.57;;;8.93;;
73733;SDS011;62039;50.000;9.064;2022-12-01T03:22:30;11.10;;;9.37;;
73733;SDS011;62039;50.000;9.064;2022-12-01T03:25:02;13.63;;;10.27;;
73733;SDS011;62039;50.000;9.064;2022-12-01T03:27:31;12.43;;;9.80;;
73733;SDS011;62039;50.000;9.064;2022-12-01T03:30:02;15.67;;;11.87;;
73733;SDS011;62039;50.000;9.064;2022-12-01T03:32:31;11.23;;;9.00;;
73733;SDS011;62039;50.000;9.064;2022-12-01T03:35:03;11.07;;;8.93;;
73733;SDS011;62039;50.000;9.064;2022-12-01T03:37:34;11.70;;;8.50;;
73733;SDS011;62039;50.000;9.064;2022-12-01T03:40:06;10.43;;;8.13;;
73733;SDS011;62039;50.000;9.064;2022-12-01T03:42:36;10.03;;;8.00;;
73733;SDS011;62039;50.000;9.064;2022-12-01T03:45:07;9.47;;;7.87;;
73733;SDS011;62039;50.000;9.064;2022-12-01T03:47:40;12.57;;;9.70;;
73733;SDS011;62039;50.000;9.064;2022-12-01T03:50:07;13.30;;;9.83;;
73733;SDS011;62039;50.000;9.064;2022-12-01T03:52:37;10.70;;;8.70;;
73733;SDS011;62039;50.000;9.064;2022-12-01T03:55:09;13.13;;;9.27;;
73733;SDS011;62039;50.000;9.064;2022-12-01T03:57:40;12.20;;;9.33;;
73733;SDS011;62039;50.000;9.064;2022-12-01T04:00:11;11.50;;;9.83;;
73733;SDS011;62039;50.000;9.064;2022-12-01T04:02:41;11.47;;;9.17;;
73733;SDS011;62039;50.000;9.064;2022-12-01T04:05:08;11.13;;;8.77;;
73733;SDS011;62039;50.000;9.064;2022-12-01T04:07:34;10.67;;;8.83;;
73733;SDS011;62039;50.000;9.064;2022-12-01T04:10:01;9.13;;;7.63;;
73733;SDS011;62039;50.000;9.064;2022-12-01T04:12:28;11.60;;;8.10;;
73733;SDS011;62039;50.000;9.064;2022-12-01T04:14:55;11.13;;;8.10;;
73733;SDS011;62039;50.000;9.064;2022-12-01T04:17:22;10.70;;;8.23;;
73733;SDS011;62039;50.000;9.064;2022-12-01T04:19:50;11.10;;;8.13;;
73733;SDS011;62039;50.000;9.064;2022-12-01T04:22:17;9.60;;;7.80;;
73733;SDS011;62039;50.000;9.064;2022-12-01T04:24:44;9.60;;;7.17;;
73733;SDS011;62039;50.000;9.064;2022-12-01T04:27:11;11.50;;;8.33;;
73733;SDS011;62039;50.000;9.064;2022-12-01T04:29:38;11.97;;;9.03;;
73733;SDS011;62039;50.000;9.064;2022-12-01T04:32:04;11.07;;;8.27;;
73733;SDS011;62039;50.000;9.064;2022-12-01T04:34:31;11.23;;;8.40;;
73733;SDS011;62039;50.000;9.064;2022-12-01T04:36:59;14.03;;;9.67;;
73733;SDS011;62039;50.000;9.064;2022-12-01T04:39:26;13.13;;;8.93;;
73733;SDS011;62039;50.000;9.064;2022-12-01T04:41:52;11.57;;;8.50;;
73733;SDS011;62039;50.000;9.064;2022-12-01T04:44:19;12.10;;;8.53;;
73733;SDS011;62039;50.000;9.064;2022-12-01T04:46:46;11.40;;;8.70;;
73733;SDS011;62039;50.000;9.064;2022-12-01T04:49:12;12.30;;;9.27;;
73733;SDS011;62039;50.000;9.064;2022-12-01T04:51:39;10.90;;;8.67;;
73733;SDS011;62039;50.000;9.064;2022-12-01T04:54:07;11.17;;;8.23;;
73733;SDS011;62039;50.000;9.064;2022-12-01T04:56:33;9.47;;;7.50;;
73733;SDS011;62039;50.000;9.064;2022-12-01T04:59:00;10.17;;;8.30;;
73733;SDS011;62039;50.000;9.064;2022-12-01T05:01:27;9.97;;;8.33;;
73733;SDS011;62039;50.000;9.064;2022-12-01T05:03:53;9.80;;;7.83;;
73733;SDS011;62039;50.000;9.064;2022-12-01T05:06:21;10.20;;;8.70;;
73733;SDS011;62039;50.000;9.064;2022-12-01T05:08:49;9.90;;;8.00;;
73733;SDS011;62039;50.000;9.064;2022-12-01T05:11:18;8.70;;;7.23;;
73733;SDS011;62039;50.000;9.064;2022-12-01T05:13:45;10.07;;;8.40;;
73733;SDS011;62039;50.000;9.064;2022-12-01T05:16:14;9.97;;;7.70;;
73733;SDS011;62039;50.000;9.064;2022-12-01T05:18:42;9.37;;;7.10;;
73733;SDS011;62039;50.000;9.064;2022-12-01T05:21:09;11.10;;;7.80;;
73733;SDS011;62039;50.000;9.064;2022-12-01T05:23:36;8.70;;;7.20;;
73733;SDS011;62039;50.000;9.064;2022-12-01T05:26:04;8.53;;;6.87;;
73733;SDS011;62039;50.000;9.064;2022-12-01T05:28:33;8.40;;;7.27;;
73733;SDS011;62039;50.000;9.064;2022-12-01T05:31:00;9.40;;;7.47;;
73733;SDS011;62039;50.000;9.064;2022-12-01T05:33:28;8.70;;;7.27;;
73733;SDS011;62039;50.000;9.064;2022-12-01T05:35:55;10.27;;;8.20;;
73733;SDS011;62039;50.000;9.064;2022-12-01T05:38:21;8.50;;;7.13;;
73733;SDS011;62039;50.000;9.064;2022-12-01T05:40:48;11.17;;;8.77;;
73733;SDS011;62039;50.000;9.064;2022-12-01T05:43:16;9.07;;;7.33;;
73733;SDS011;62039;50.000;9.064;2022-12-01T05:45:44;10.67;;;7.90;;
73733;SDS011;62039;50.000;9.064;2022-12-01T05:48:10;9.10;;;7.17;;
73733;SDS011;62039;50.000;9.064;2022-12-01T05:50:37;10.60;;;8.90;;
73733;SDS011;62039;50.000;9.064;2022-12-01T05:53:04;9.23;;;7.43;;
73733;SDS011;62039;50.000;9.064;2022-12-01T05:55:31;9.30;;;8.03;;
73733;SDS011;62039;50.000;9.064;2022-12-01T05:57:58;7.80;;;6.63;;
73733;SDS011;62039;50.000;9.064;2022-12-01T06:00:25;8.67;;;7.20;;
73733;SDS011;62039;50.000;9.064;2022-12-01T06:02:53;9.90;;;7.60;;
73733;SDS011;62039;50.000;9.064;2022-12-01T06:05:19;10.60;;;8.13;;
73733;SDS011;62039;50.000;9.064;2022-12-01T06:07:46;10.43;;;8.30;;
73733;SDS011;62039;50.000;9.064;2022-12-01T06:10:12;9.80;;;7.70;;
73733;SDS011;62039;50.000;9.064;2022-12-01T06:12:39;9.87;;;8.20;;
73733;SDS011;62039;50.000;9.064;2022-12-01T06:15:06;8.67;;;7.23;;
73733;SDS011;62039;50.000;9.064;2022-12-01T06:17:34;7.97;;;6.90;;
73733;SDS011;62039;50.000;9.064;2022-12-01T06:20:07;6.47;;;5.83;;
73733;SDS011;62039;50.000;9.064;2022-12-01T06:22:35;7.17;;;6.47;;
73733;SDS011;62039;50.000;9.064;2022-12-01T06:25:02;7.30;;;5.93;;
73733;SDS011;62039;50.000;9.064;2022-12-01T06:27:29;8.03;;;6.87;;
73733;SDS011;62039;50.000;9.064;2022-12-01T06:29:55;9.63;;;7.13;;
73733;SDS011;62039;50.000;9.064;2022-12-01T06:32:22;9.07;;;7.83;;
73733;SDS011;62039;50.000;9.064;2022-12-01T06:34:48;9.70;;;8.17;;
73733;SDS011;62039;50.000;9.064;2022-12-01T06:37:17;8.63;;;7.07;;
73733;SDS011;62039;50.000;9.064;2022-12-01T06:39:43;9.67;;;7.80;;
73733;SDS011;62039;50.000;9.064;2022-12-01T06:42:10;8.50;;;7.27;;
73733;SDS011;62039;50.000;9.064;2022-12-01T06:44:36;9.53;;;7.53;;
73733;SDS011;62039;50.000;9.064;2022-12-01T06:47:03;9.47;;;7.37;;
73733;SDS011;62039;50.000;9.064;2022-12-01T06:49:30;9.13;;;7.53;;
73733;SDS011;62039;50.000;9.064;2022-12-01T06:51:56;9.60;;;7.33;;
73733;SDS011;62039;50.000;9.064;2022-12-01T06:54:27;9.40;;;7.67;;
73733;SDS011;62039;50.000;9.064;2022-12-01T06:56:54;9.43;;;7.80;;
73733;SDS011;62039;50.000;9.064;2022-12-01T06:59:20;8.60;;;7.53;;
73733;SDS011;62039;50.000;9.064;2022-12-01T07:01:47;8.67;;;7.47;;
73733;SDS011;62039;50.000;9.064;2022-12-01T07:04:14;9.93;;;8.40;;
73733;SDS011;62039;50.000;9.064;2022-12-01T07:06:41;9.90;;;7.10;;
73733;SDS011;62039;50.000;9.064;2022-12-01T07:09:07;7.60;;;6.30;;
73733;SDS011;62039;50.000;9.064;2022-12-01T07:11:35;6.97;;;6.07;;
73733;SDS011;62039;50.000;9.064;2022-12-01T07:14:02;7.97;;;6.33;;
73733;SDS011;62039;50.000;9.064;2022-12-01T07:16:28;8.90;;;6.93;;
73733;SDS011;62039;50.000;9.064;2022-12-01T07:18:55;7.80;;;6.00;;
73733;SDS011;62039;50.000;9.064;2022-12-01T07:21:22;7.30;;;6.43;;
73733;SDS011;62039;50.000;9.064;2022-12-01T07:23:48;7.87;;;6.23;;
73733;SDS011;62039;50.000;9.064;2022-12-01T07:26:16;7.43;;;6.10;;
73733;SDS011;62039;50.000;9.064;2022-12-01T07:28:45;7.80;;;6.90;;
73733;SDS011;62039;50.000;9.064;2022-12-01T07:31:12;7.10;;;6.37;;
73733;SDS011;62039;50.000;9.064;2022-12-01T07:33:40;9.57;;;7.13;;
73733;SDS011;62039;50.000;9.064;2022-12-01T07:36:07;7.70;;;6.67;;
73733;SDS011;62039;50.000;9.064;2022-12-01T07:38:34;8.47;;;6.67;;
73733;SDS011;62039;50.000;9.064;2022-12-01T07:41:01;8.17;;;7.00;;
73733;SDS011;62039;50.000;9.064;2022-12-01T07:43:28;8.97;;;7.17;;
73733;SDS011;62039;50.000;9.064;2022-12-01T07:46:02;9.07;;;7.27;;
73733;SDS011;62039;50.000;9.064;2022-12-01T07:48:32;8.10;;;6.60;;
73733;SDS011;62039;50.000;9.064;2022-12-01T07:50:59;7.60;;;6.70;;
73733;SDS011;62039;50.000;9.064;2022-12-01T07:53:25;8.93;;;6.73;;
73733;SDS011;62039;50.000;9.064;2022-12-01T07:55:52;6.87;;;6.20;;
73733;SDS011;62039;50.000;9.064;2022-12-01T07:58:18;8.30;;;6.63;;
73733;SDS011;62039;50.000;9.064;2022-12-01T08:00:45;7.83;;;6.70;;
73733;SDS011;62039;50.000;9.064;2022-12-01T08:03:13;8.47;;;6.37;;
73733;SDS011;62039;50.000;9.064;2022-12-01T08:05:40;8.53;;;6.73;;
73733;SDS011;62039;50.000;9.064;2022-12-01T08:08:06;9.47;;;7.87;;
73733;SDS011;62039;50.000;9.064;2022-12-01T08:10:33;7.93;;;6.67;;
73733;SDS011;62039;50.000;9.064;2022-12-01T08:13:00;8.57;;;7.07;;
73733;SDS011;62039;50.000;9.064;2022-12-01T08:15:27;9.40;;;7.17;;
73733;SDS011;62039;50.000;9.064;2022-12-01T08:17:53;9.90;;;7.70;;
73733;SDS011;62039;50.000;9.064;2022-12-01T08:20:21;9.10;;;7.30;;
73733;SDS011;62039;50.000;9.064;2022-12-01T08:22:49;8.23;;;6.57;;
73733;SDS011;62039;50.000;9.064;2022-12-01T08:25:16;7.60;;;6.70;;
73733;SDS011;62039;50.000;9.064;2022-12-01T08:27:42;8.07;;;6.57;;
73733;SDS011;62039;50.000;9.064;2022-12-01T08:30:09;8.87;;;6.57;;
73733;SDS011;62039;50.000;9.064;2022-12-01T08:32:36;9.17;;;7.33;;
73733;SDS011;62039;50.000;9.064;2022-12-01T08:35:03;8.70;;;7.33;;
73733;SDS011;62039;50.000;9.064;2022-12-01T08:37:31;8.83;;;7.17;;
73733;SDS011;62039;50.000;9.064;2022-12-01T08:39:58;7.73;;;6.40;;
73733;SDS011;62039;50.000;9.064;2022-12-01T08:42:24;8.57;;;7.00;;
73733;SDS011;62039;50.000;9.064;2022-12-01T08:44:51;9.33;;;7.37;;
73733;SDS011;62039;50.000;9.064;2022-12-01T08:47:18;10.87;;;8.20;;
73733;SDS011;62039;50.000;9.064;2022-12-01T08:49:44;9.63;;;8.00;;
73733;SDS011;62039;50.000;9.064;2022-12-01T08:52:11;9.57;;;7.80;;
73733;SDS011;62039;50.000;9.064;2022-12-01T08:54:39;7.90;;;6.90;;
73733;SDS011;62039;50.000;9.064;2022-12-01T08:57:06;7.57;;;6.63;;
73733;SDS011;62039;50.000;9.064;2022-12-01T08:59:32;7.93;;;6.77;;
73733;SDS011;62039;50.000;9.064;2022-12-01T09:01:59;7.17;;;6.17;;
73733;SDS011;62039;50.000;9.064;2022-12-01T09:04:32;6.43;;;5.73;;
73733;SDS011;62039;50.000;9.064;2022-12-01T09:06:58;6.33;;;5.60;;
73733;SDS011;62039;50.000;9.064;2022-12-01T09:09:26;8.03;;;5.97;;
73733;SDS011;62039;50.000;9.064;2022-12-01T09:11:55;7.63;;;6.20;;
73733;SDS011;62039;50.000;9.064;2022-12-01T09:14:22;7.27;;;5.90;;
73733;SDS011;62039;50.000;9.064;2022-12-01T09:16:49;7.50;;;5.83;;
73733;SDS011;62039;50.000;9.064;2022-12-01T09:19:16;7.83;;;5.90;;
73733;SDS011;62039;50.000;9.064;2022-12-01T09:21:50;7.03;;;6.10;;
73733;SDS011;62039;50.000;9.064;2022-12-01T09:24:17;7.93;;;6.63;;
73733;SDS011;62039;50.000;9.064;2022-12-01T09:26:43;7.40;;;6.03;;
73733;SDS011;62039;50.000;9.064;2022-12-01T09:29:12;8.23;;;6.27;;
73733;SDS011;62039;50.000;9.064;2022-12-01T09:31:40;7.07;;;5.83;;
73733;SDS011;62039;50.000;9.064;2022-12-01T09:34:10;7.13;;;5.50;;
73733;SDS011;62039;50.000;9.064;2022-12-01T09:36:38;7.07;;;6.10;;
73733;SDS011;62039;50.000;9.064;2022-12-01T09:39:05;6.83;;;5.77;;
73733;SDS011;62039;50.000;9.064;2022-12-01T09:41:34;8.10;;;6.83;;
73733;SDS011;62039;50.000;9.064;2022-12-01T09:44:04;7.37;;;6.57;;
73733;SDS011;62039;50.000;9.064;2022-12-01T09:46:42;7.43;;;6.00;;
73733;SDS011;62039;50.000;9.064;2022-12-01T09:49:14;7.63;;;6.20;;
73733;SDS011;62039;50.000;9.064;2022-12-01T09:51:43;8.83;;;6.13;;
73733;SDS011;62039;50.000;9.064;2022-12-01T09:54:11;8.17;;;6.63;;
73733;SDS011;62039;50.000;9.064;2022-12-01T09:56:41;7.60;;;6.47;;
73733;SDS011;62039;50.000;9.064;2022-12-01T09:59:14;10.60;;;8.07;;
73733;SDS011;62039;50.000;9.064;2022-12-01T10:01:45;8.57;;;6.70;;
73733;SDS011;62039;50.000;9.064;2022-12-01T10:04:16;7.97;;;6.37;;
73733;SDS011;62039;50.000;9.064;2022-12-01T10:06:47;8.73;;;6.70;;
73733;SDS011;62039;50.000;9.064;2022-12-01T10:09:18;10.63;;;7.87;;
73733;SDS011;62039;50.000;9.064;2022-12-01T10:11:49;9.43;;;7.07;;
73733;SDS011;62039;50.000;9.064;2022-12-01T10:14:20;10.17;;;7.77;;
73733;SDS011;62039;50.000;9.064;2022-12-01T10:16:49;9.73;;;7.17;;
73733;SDS011;62039;50.000;9.064;2022-12-01T10:19:22;8.50;;;6.77;;
73733;SDS011;62039;50.000;9.064;2022-12-01T10:22:01;9.20;;;6.93;;
73733;SDS011;62039;50.000;9.064;2022-12-01T10:24:47;9.93;;;6.57;;
73733;SDS011;62039;50.000;9.064;2022-12-01T10:27:23;8.07;;;6.63;;
73733;SDS011;62039;50.000;9.064;2022-12-01T10:30:02;8.40;;;6.43;;
73733;SDS011;62039;50.000;9.064;2022-12-01T10:32:33;8.53;;;7.07;;
73733;SDS011;62039;50.000;9.064;2022-12-01T10:35:07;9.87;;;7.40;;
73733;SDS011;62039;50.000;9.064;2022-12-01T10:37:36;9.27;;;7.20;;
73733;SDS011;62039;50.000;9.064;2022-12-01T10:40:04;8.10;;;6.43;;
73733;SDS011;62039;50.000;9.064;2022-12-01T10:42:38;8.10;;;6.30;;
73733;SDS011;62039;50.000;9.064;2022-12-01T10:45:13;9.13;;;6.47;;
73733;SDS011;62039;50.000;9.064;2022-12-01T10:50:33;8.73;;;6.83;;
73733;SDS011;62039;50.000;9.064;2022-12-01T10:53:00;8.70;;;6.77;;
73733;SDS011;62039;50.000;9.064;2022-12-01T10:55:28;10.07;;;7.73;;
73733;SDS011;62039;50.000;9.064;2022-12-01T10:57:58;9.80;;;6.97;;
73733;SDS011;62039;50.000;9.064;2022-12-01T11:00:36;9.70;;;7.33;;
73733;SDS011;62039;50.000;9.064;2022-12-01T11:03:26;9.30;;;7.07;;
73733;SDS011;62039;50.000;9.064;2022-12-01T11:05:57;7.50;;;6.10;;
73733;SDS011;62039;50.000;9.064;2022-12-01T11:08:28;7.97;;;6.10;;
73733;SDS011;62039;50.000;9.064;2022-12-01T11:10:58;8.40;;;6.90;;
73733;SDS011;62039;50.000;9.064;2022-12-01T11:13:27;9.37;;;7.03;;
73733;SDS011;62039;50.000;9.064;2022-12-01T11:15:57;9.27;;;6.80;;
73733;SDS011;62039;50.000;9.064;2022-12-01T11:18:27;9.80;;;7.37;;
73733;SDS011;62039;50.000;9.064;2022-12-01T11:21:04;9.83;;;7.67;;
73733;SDS011;62039;50.000;9.064;2022-12-01T11:23:34;9.13;;;7.20;;
73733;SDS011;62039;50.000;9.064;2022-12-01T11:26:03;8.27;;;6.53;;
73733;SDS011;62039;50.000;9.064;2022-12-01T11:28:35;8.63;;;6.73;;
73733;SDS011;62039;50.000;9.064;2022-12-01T11:31:05;8.17;;;6.73;;
73733;SDS011;62039;50.000;9.064;2022-12-01T11:33:38;9.30;;;7.23;;
73733;SDS011;62039;50.000;9.064;2022-12-01T11:36:10;8.20;;;6.60;;
73733;SDS011;62039;50.000;9.064;2022-12-01T11:38:45;8.67;;;6.93;;
73733;SDS011;62039;50.000;9.064;2022-12-01T11:41:21;7.63;;;6.63;;
73733;SDS011;62039;50.000;9.064;2022-12-01T11:43:52;8.80;;;6.93;;
73733;SDS011;62039;50.000;9.064;2022-12-01T11:46:29;9.60;;;7.20;;
73733;SDS011;62039;50.000;9.064;2022-12-01T11:48:58;8.27;;;6.70;;
73733;SDS011;62039;50.000;9.064;2022-12-01T11:51:26;10.20;;;7.43;;
73733;SDS011;62039;50.000;9.064;2022-12-01T11:54:03;9.63;;;7.47;;
73733;SDS011;62039;50.000;9.064;2022-12-01T11:56:31;8.50;;;6.63;;
73733;SDS011;62039;50.000;9.064;2022-12-01T11:58:59;9.57;;;7.10;;
73733;SDS011;62039;50.000;9.064;2022-12-01T12:01:32;8.23;;;6.63;;
73733;SDS011;62039;50.000;9.064;2022-12-01T12:04:09;8.50;;;7.07;;
73733;SDS011;62039;50.000;9.064;2022-12-01T12:06:46;11.63;;;7.90;;
73733;SDS011;62039;50.000;9.064;2022-12-01T12:09:24;8.83;;;6.90;;
73733;SDS011;62039;50.000;9.064;2022-12-01T12:12:01;8.70;;;7.47;;
73733;SDS011;62039;50.000;9.064;2022-12-01T12:14:47;9.37;;;7.30;;
73733;SDS011;62039;50.000;9.064;2022-12-01T12:17:25;11.73;;;8.67;;
73733;SDS011;62039;50.000;9.064;2022-12-01T12:20:10;9.83;;;7.97;;
73733;SDS011;62039;50.000;9.064;2022-12-01T12:22:54;8.23;;;6.80;;
73733;SDS011;62039;50.000;9.064;2022-12-01T12:25:44;9.03;;;7.07;;
73733;SDS011;62039;50.000;9.064;2022-12-01T12:28:24;8.53;;;7.63;;
73733;SDS011;62039;50.000;9.064;2022-12-01T12:31:02;9.03;;;7.47;;
73733;SDS011;62039;50.000;9.064;2022-12-01T12:33:40;11.23;;;8.03;;
73733;SDS011;62039;50.000;9.064;2022-12-01T12:36:20;9.40;;;7.93;;
73733;SDS011;62039;50.000;9.064;2022-12-01T12:38:59;8.40;;;7.03;;
73733;SDS011;62039;50.000;9.064;2022-12-01T12:41:44;8.83;;;7.07;;
73733;SDS011;62039;50.000;9.064;2022-12-01T12:44:16;8.10;;;6.50;;
73733;SDS011;62039;50.000;9.064;2022-12-01T12:47:05;8.97;;;6.63;;
73733;SDS011;62039;50.000;9.064;2022-12-01T12:49:46;8.20;;;6.60;;
73733;SDS011;62039;50.000;9.064;2022-12-01T12:52:21;7.40;;;6.53;;
73733;SDS011;62039;50.000;9.064;2022-12-01T12:54:51;8.13;;;7.17;;
73733;SDS011;62039;50.000;9.064;2022-12-01T12:57:23;9.60;;;7.63;;
73733;SDS011;62039;50.000;9.064;2022-12-01T12:59:55;7.90;;;6.47;;
73733;SDS011;62039;50.000;9.064;2022-12-01T13:02:26;7.30;;;6.37;;
73733;SDS011;62039;50.000;9.064;2022-12-01T13:05:00;8.73;;;6.33;;
73733;SDS011;62039;50.000;9.064;2022-12-01T13:07:33;9.47;;;7.47;;
73733;SDS011;62039;50.000;9.064;2022-12-01T13:10:07;8.77;;;7.13;;
73733;SDS011;62039;50.000;9.064;2022-12-01T13:12:42;9.33;;;7.63;;
73733;SDS011;62039;50.000;9.064;2022-12-01T13:15:15;8.83;;;7.30;;
73733;SDS011;62039;50.000;9.064;2022-12-01T13:17:44;8.10;;;6.67;;
73733;SDS011;62039;50.000;9.064;2022-12-01T13:20:18;7.10;;;6.27;;
73733;SDS011;62039;50.000;9.064;2022-12-01T13:22:53;9.20;;;7.23;;
73733;SDS011;62039;50.000;9.064;2022-12-01T13:25:23;8.97;;;7.03;;
73733;SDS011;62039;50.000;9.064;2022-12-01T13:27:53;8.60;;;6.83;;
73733;SDS011;62039;50.000;9.064;2022-12-01T13:30:21;7.63;;;6.67;;
73733;SDS011;62039;50.000;9.064;2022-12-01T13:32:56;7.80;;;6.50;;
73733;SDS011;62039;50.000;9.064;2022-12-01T13:35:26;8.40;;;6.77;;
73733;SDS011;62039;50.000;9.064;2022-12-01T13:38:10;8.67;;;7.17;;
73733;SDS011;62039;50.000;9.064;2022-12-01T13:40:43;8.30;;;6.23;;
73733;SDS011;62039;50.000;9.064;2022-12-01T13:43:13;9.07;;;6.57;;
73733;SDS011;62039;50.000;9.064;2022-12-01T13:45:43;8.13;;;6.73;;
73733;SDS011;62039;50.000;9.064;2022-12-01T13:48:25;8.33;;;6.63;;
73733;SDS011;62039;50.000;9.064;2022-12-01T13:50:56;8.77;;;6.47;;
73733;SDS011;62039;50.000;9.064;2022-12-01T13:53:26;7.97;;;6.37;;
73733;SDS011;62039;50.000;9.064;2022-12-01T13:56:04;7.23;;;6.27;;
73733;SDS011;62039;50.000;9.064;2022-12-01T13:58:47;8.07;;;6.27;;
73733;SDS011;62039;50.000;9.064;2022-12-01T14:04:21;8.40;;;6.93;;
73733;SDS011;62039;50.000;9.064;2022-12-01T14:09:52;10.00;;;7.27;;
73733;SDS011;62039;50.000;9.064;2022-12-01T14:12:22;9.27;;;7.30;;
73733;SDS011;62039;50.000;9.064;2022-12-01T14:14:53;8.30;;;6.83;;
73733;SDS011;62039;50.000;9.064;2022-12-01T14:17:26;8.93;;;7.20;;
73733;SDS011;62039;50.000;9.064;2022-12-01T14:19:54;9.37;;;7.57;;
73733;SDS011;62039;50.000;9.064;2022-12-01T14:22:32;8.53;;;6.23;;
73733;SDS011;62039;50.000;9.064;2022-12-01T14:25:02;9.37;;;7.33;;
73733;SDS011;62039;50.000;9.064;2022-12-01T14:27:36;8.80;;;7.67;;
73733;SDS011;62039;50.000;9.064;2022-12-01T14:36:16;10.27;;;7.13;;
73733;SDS011;62039;50.000;9.064;2022-12-01T14:38:59;9.20;;;6.70;;
73733;SDS011;62039;50.000;9.064;2022-12-01T14:41:30;10.70;;;6.53;;
73733;SDS011;62039;50.000;9.064;2022-12-01T14:44:04;9.37;;;7.60;;
73733;SDS011;62039;50.000;9.064;2022-12-01T14:46:37;9.67;;;7.70;;
73733;SDS011;62039;50.000;9.064;2022-12-01T14:49:11;8.43;;;7.47;;
73733;SDS011;62039;50.000;9.064;2022-12-01T14:51:43;8.13;;;7.30;;
73733;SDS011;62039;50.000;9.064;2022-12-01T14:54:16;8.73;;;7.23;;
73733;SDS011;62039;50.000;9.064;2022-12-01T14:56:50;9.67;;;7.73;;
73733;SDS011;62039;50.000;9.064;2022-12-01T14:59:19;9.13;;;7.47;;
73733;SDS011;62039;50.000;9.064;2022-12-01T15:01:47;9.43;;;7.73;;
73733;SDS011;62039;50.000;9.064;2022-12-01T15:04:15;8.97;;;6.83;;
73733;SDS011;62039;50.000;9.064;2022-12-01T15:06:42;9.60;;;7.60;;
73733;SDS011;62039;50.000;9.064;2022-12-01T15:09:10;11.00;;;8.87;;
73733;SDS011;62039;50.000;9.064;2022-12-01T15:12:00;10.80;;;8.30;;
73733;SDS011;62039;50.000;9.064;2022-12-01T15:14:30;9.50;;;7.30;;
73733;SDS011;62039;50.000;9.064;2022-12-01T15:16:58;13.33;;;7.70;;